sensor_id;sensor_type;location;lat;lon;timestamp;P1;durP1;ratioP1;P2;durP2;ratioP2
45944;SDS011;31655;48.972;10.686;2023-06-19T00:02:20;8.52;;;6.55;;
45944;SDS011;31655;48.972;10.686;2023-06-19T00:04:46;9.35;;;7.15;;
45944;SDS011;31655;48.972;10.686;2023-06-19T00:07:12;8.88;;;7.10;;
45944;SDS011;31655;48.972;10.686;2023-06-19T00:09:38;8.60;;;6.72;;
45944;SDS011;31655;48.972;10.686;2023-06-19T00:12:03;8.30;;;6.80;;
45944;SDS011;31655;48.972;10.686;2023-06-19T00:14:29;9.73;;;7.05;;
45944;SDS011;31655;48.972;10.686;2023-06-19T00:16:55;11.35;;;7.85;;
45944;SDS011;31655;48.972;10.686;2023-06-19T00:19:22;11.32;;;6.95;;
45944;SDS011;31655;48.972;10.686;2023-06-19T00:21:48;8.77;;;6.88;;
45944;SDS011;31655;48.972;10.686;2023-06-19T00:24:14;13.30;;;8.13;;
45944;SDS011;31655;48.972;10.686;2023-06-19T00:26:40;10.93;;;8.32;;
45944;SDS011;31655;48.972;10.686;2023-06-19T00:29:05;9.15;;;6.90;;
45944;SDS011;31655;48.972;10.686;2023-06-19T00:31:32;8.57;;;6.97;;
45944;SDS011;31655;48.972;10.686;2023-06-19T00:33:58;8.13;;;6.40;;
45944;SDS011;31655;48.972;10.686;2023-06-19T00:36:23;10.40;;;7.22;;
45944;SDS011;31655;48.972;10.686;2023-06-19T00:38:51;11.80;;;6.97;;
45944;SDS011;31655;48.972;10.686;2023-06-19T00:41:17;10.75;;;6.95;;
45944;SDS011;31655;48.972;10.686;2023-06-19T00:43:43;10.98;;;7.28;;
45944;SDS011;31655;48.972;10.686;2023-06-19T00:46:09;10.20;;;6.65;;
45944;SDS011;31655;48.972;10.686;2023-06-19T00:48:36;9.82;;;7.72;;
45944;SDS011;31655;48.972;10.686;2023-06-19T00:51:02;9.57;;;7.18;;
45944;SDS011;31655;48.972;10.686;2023-06-19T00:53:28;9.35;;;7.18;;
45944;SDS011;31655;48.972;10.686;2023-06-19T00:55:56;12.25;;;7.80;;
45944;SDS011;31655;48.972;10.686;2023-06-19T00:58:22;11.05;;;7.53;;
45944;SDS011;31655;48.972;10.686;2023-06-19T01:00:48;13.95;;;7.57;;
45944;SDS011;31655;48.972;10.686;2023-06-19T01:03:17;11.40;;;7.53;;
45944;SDS011;31655;48.972;10.686;2023-06-19T01:05:43;11.48;;;7.63;;
45944;SDS011;31655;48.972;10.686;2023-06-19T01:10:49;7.90;;;6.50;;
45944;SDS011;31655;48.972;10.686;2023-06-19T01:13:21;12.68;;;8.10;;
45944;SDS011;31655;48.972;10.686;2023-06-19T01:15:59;10.10;;;7.82;;
45944;SDS011;31655;48.972;10.686;2023-06-19T01:18:28;9.18;;;7.10;;
45944;SDS011;31655;48.972;10.686;2023-06-19T01:21:11;11.48;;;8.20;;
45944;SDS011;31655;48.972;10.686;2023-06-19T01:23:37;10.05;;;7.75;;
45944;SDS011;31655;48.972;10.686;2023-06-19T01:26:03;14.00;;;8.60;;
45944;SDS011;31655;48.972;10.686;2023-06-19T01:28:28;10.60;;;8.25;;
45944;SDS011;31655;48.972;10.686;2023-06-19T01:30:54;10.25;;;8.45;;
45944;SDS011;31655;48.972;10.686;2023-06-19T01:33:24;10.38;;;7.55;;
45944;SDS011;31655;48.972;10.686;2023-06-19T01:35:52;12.68;;;8.95;;
45944;SDS011;31655;48.972;10.686;2023-06-19T01:38:20;11.35;;;7.90;;
45944;SDS011;31655;48.972;10.686;2023-06-19T01:40:50;11.15;;;7.57;;
45944;SDS011;31655;48.972;10.686;2023-06-19T01:43:18;9.70;;;7.30;;
45944;SDS011;31655;48.972;10.686;2023-06-19T01:45:44;10.98;;;7.20;;
45944;SDS011;31655;48.972;10.686;2023-06-19T01:48:10;13.63;;;7.78;;
45944;SDS011;31655;48.972;10.686;2023-06-19T01:50:36;8.30;;;7.22;;
45944;SDS011;31655;48.972;10.686;2023-06-19T01:53:02;12.38;;;7.53;;
45944;SDS011;31655;48.972;10.686;2023-06-19T01:55:28;14.52;;;8.10;;
45944;SDS011;31655;48.972;10.686;2023-06-19T01:57:53;12.07;;;8.00;;
45944;SDS011;31655;48.972;10.686;2023-06-19T02:00:19;13.07;;;8.35;;
45944;SDS011;31655;48.972;10.686;2023-06-19T02:02:45;11.65;;;8.32;;
45944;SDS011;31655;48.972;10.686;2023-06-19T02:05:11;9.70;;;7.55;;
45944;SDS011;31655;48.972;10.686;2023-06-19T02:07:38;9.23;;;7.55;;
45944;SDS011;31655;48.972;10.686;2023-06-19T02:10:03;13.05;;;8.55;;
45944;SDS011;31655;48.972;10.686;2023-06-19T02:12:30;9.63;;;7.68;;
45944;SDS011;31655;48.972;10.686;2023-06-19T02:14:56;9.75;;;8.30;;
45944;SDS011;31655;48.972;10.686;2023-06-19T02:17:22;9.27;;;7.78;;
45944;SDS011;31655;48.972;10.686;2023-06-19T02:19:48;12.45;;;8.82;;
45944;SDS011;31655;48.972;10.686;2023-06-19T02:22:14;13.32;;;9.07;;
45944;SDS011;31655;48.972;10.686;2023-06-19T02:24:40;11.27;;;8.45;;
45944;SDS011;31655;48.972;10.686;2023-06-19T02:27:06;10.35;;;7.72;;
45944;SDS011;31655;48.972;10.686;2023-06-19T02:29:31;12.88;;;8.40;;
45944;SDS011;31655;48.972;10.686;2023-06-19T02:31:59;11.07;;;8.43;;
45944;SDS011;31655;48.972;10.686;2023-06-19T02:34:25;10.32;;;8.30;;
45944;SDS011;31655;48.972;10.686;2023-06-19T02:36:51;12.35;;;8.45;;
45944;SDS011;31655;48.972;10.686;2023-06-19T02:39:16;11.20;;;8.75;;
45944;SDS011;31655;48.972;10.686;2023-06-19T02:41:43;12.27;;;8.65;;
45944;SDS011;31655;48.972;10.686;2023-06-19T02:44:11;14.43;;;8.55;;
45944;SDS011;31655;48.972;10.686;2023-06-19T02:46:37;13.02;;;9.05;;
45944;SDS011;31655;48.972;10.686;2023-06-19T02:49:03;11.10;;;8.02;;
45944;SDS011;31655;48.972;10.686;2023-06-19T02:51:29;15.23;;;9.02;;
45944;SDS011;31655;48.972;10.686;2023-06-19T02:53:55;13.80;;;9.63;;
45944;SDS011;31655;48.972;10.686;2023-06-19T02:56:21;13.40;;;8.23;;
45944;SDS011;31655;48.972;10.686;2023-06-19T02:58:47;10.05;;;8.00;;
45944;SDS011;31655;48.972;10.686;2023-06-19T03:01:13;9.88;;;8.45;;
45944;SDS011;31655;48.972;10.686;2023-06-19T03:03:39;10.38;;;8.32;;
45944;SDS011;31655;48.972;10.686;2023-06-19T03:06:06;14.50;;;9.18;;
45944;SDS011;31655;48.972;10.686;2023-06-19T03:08:33;12.18;;;9.13;;
45944;SDS011;31655;48.972;10.686;2023-06-19T03:11:02;12.63;;;8.95;;
45944;SDS011;31655;48.972;10.686;2023-06-19T03:13:44;13.07;;;9.15;;
45944;SDS011;31655;48.972;10.686;2023-06-19T03:16:13;11.20;;;8.65;;
45944;SDS011;31655;48.972;10.686;2023-06-19T03:18:39;11.65;;;8.55;;
45944;SDS011;31655;48.972;10.686;2023-06-19T03:21:06;9.07;;;8.13;;
45944;SDS011;31655;48.972;10.686;2023-06-19T03:23:32;12.60;;;9.27;;
45944;SDS011;31655;48.972;10.686;2023-06-19T03:25:58;12.43;;;8.23;;
45944;SDS011;31655;48.972;10.686;2023-06-19T03:28:24;12.98;;;8.40;;
45944;SDS011;31655;48.972;10.686;2023-06-19T03:30:50;15.15;;;9.32;;
45944;SDS011;31655;48.972;10.686;2023-06-19T03:33:16;12.98;;;9.18;;
45944;SDS011;31655;48.972;10.686;2023-06-19T03:35:42;13.00;;;8.93;;
45944;SDS011;31655;48.972;10.686;2023-06-19T03:38:08;11.98;;;9.25;;
45944;SDS011;31655;48.972;10.686;2023-06-19T03:40:34;9.70;;;7.70;;
45944;SDS011;31655;48.972;10.686;2023-06-19T03:43:00;11.77;;;8.65;;
45944;SDS011;31655;48.972;10.686;2023-06-19T03:45:26;10.23;;;8.25;;
45944;SDS011;31655;48.972;10.686;2023-06-19T03:47:52;13.40;;;8.68;;
45944;SDS011;31655;48.972;10.686;2023-06-19T03:50:19;15.20;;;9.32;;
45944;SDS011;31655;48.972;10.686;2023-06-19T03:52:45;12.32;;;8.00;;
45944;SDS011;31655;48.972;10.686;2023-06-19T03:55:10;10.88;;;8.32;;
45944;SDS011;31655;48.972;10.686;2023-06-19T03:57:36;10.38;;;7.95;;
45944;SDS011;31655;48.972;10.686;2023-06-19T04:00:02;10.70;;;8.48;;
45944;SDS011;31655;48.972;10.686;2023-06-19T04:02:32;9.35;;;8.02;;
45944;SDS011;31655;48.972;10.686;2023-06-19T04:04:58;8.82;;;6.85;;
45944;SDS011;31655;48.972;10.686;2023-06-19T04:07:24;10.30;;;7.40;;
45944;SDS011;31655;48.972;10.686;2023-06-19T04:09:50;8.98;;;6.72;;
45944;SDS011;31655;48.972;10.686;2023-06-19T04:12:16;9.73;;;7.00;;
45944;SDS011;31655;48.972;10.686;2023-06-19T04:14:41;10.35;;;6.53;;
45944;SDS011;31655;48.972;10.686;2023-06-19T04:17:07;9.25;;;6.72;;
45944;SDS011;31655;48.972;10.686;2023-06-19T04:19:33;7.95;;;6.10;;
45944;SDS011;31655;48.972;10.686;2023-06-19T04:21:59;8.02;;;6.43;;
45944;SDS011;31655;48.972;10.686;2023-06-19T04:24:25;9.23;;;6.03;;
45944;SDS011;31655;48.972;10.686;2023-06-19T04:26:51;7.65;;;6.10;;
45944;SDS011;31655;48.972;10.686;2023-06-19T04:29:17;7.63;;;5.70;;
45944;SDS011;31655;48.972;10.686;2023-06-19T04:31:44;6.45;;;5.40;;
45944;SDS011;31655;48.972;10.686;2023-06-19T04:34:12;8.13;;;5.78;;
45944;SDS011;31655;48.972;10.686;2023-06-19T04:36:39;7.38;;;6.28;;
45944;SDS011;31655;48.972;10.686;2023-06-19T04:39:06;7.03;;;5.53;;
45944;SDS011;31655;48.972;10.686;2023-06-19T04:41:32;7.28;;;6.28;;
45944;SDS011;31655;48.972;10.686;2023-06-19T04:43:58;5.88;;;5.15;;
45944;SDS011;31655;48.972;10.686;2023-06-19T04:46:23;7.85;;;5.07;;
45944;SDS011;31655;48.972;10.686;2023-06-19T04:48:49;5.35;;;4.85;;
45944;SDS011;31655;48.972;10.686;2023-06-19T04:51:16;7.10;;;5.22;;
45944;SDS011;31655;48.972;10.686;2023-06-19T04:53:45;6.45;;;5.13;;
45944;SDS011;31655;48.972;10.686;2023-06-19T04:56:11;7.97;;;5.28;;
45944;SDS011;31655;48.972;10.686;2023-06-19T04:58:37;6.60;;;5.30;;
45944;SDS011;31655;48.972;10.686;2023-06-19T05:01:11;5.55;;;4.88;;
45944;SDS011;31655;48.972;10.686;2023-06-19T05:03:37;6.03;;;5.13;;
45944;SDS011;31655;48.972;10.686;2023-06-19T05:06:03;7.88;;;5.18;;
45944;SDS011;31655;48.972;10.686;2023-06-19T05:08:29;8.13;;;5.10;;
45944;SDS011;31655;48.972;10.686;2023-06-19T05:10:54;5.47;;;4.75;;
45944;SDS011;31655;48.972;10.686;2023-06-19T05:13:21;6.22;;;5.57;;
45944;SDS011;31655;48.972;10.686;2023-06-19T05:15:47;5.38;;;4.70;;
45944;SDS011;31655;48.972;10.686;2023-06-19T05:18:13;6.38;;;5.47;;
45944;SDS011;31655;48.972;10.686;2023-06-19T05:20:40;8.48;;;5.00;;
45944;SDS011;31655;48.972;10.686;2023-06-19T05:23:05;8.27;;;5.13;;
45944;SDS011;31655;48.972;10.686;2023-06-19T05:25:31;5.47;;;4.82;;
45944;SDS011;31655;48.972;10.686;2023-06-19T05:27:57;5.43;;;4.93;;
45944;SDS011;31655;48.972;10.686;2023-06-19T05:30:23;8.27;;;5.80;;
45944;SDS011;31655;48.972;10.686;2023-06-19T05:32:49;7.72;;;5.00;;
45944;SDS011;31655;48.972;10.686;2023-06-19T05:35:15;6.18;;;5.40;;
45944;SDS011;31655;48.972;10.686;2023-06-19T05:37:41;7.03;;;6.15;;
45944;SDS011;31655;48.972;10.686;2023-06-19T05:40:08;7.85;;;6.05;;
45944;SDS011;31655;48.972;10.686;2023-06-19T05:42:35;8.05;;;6.25;;
45944;SDS011;31655;48.972;10.686;2023-06-19T05:45:01;8.40;;;7.15;;
45944;SDS011;31655;48.972;10.686;2023-06-19T05:50:12;6.70;;;5.82;;
45944;SDS011;31655;48.972;10.686;2023-06-19T05:52:37;7.07;;;5.70;;
45944;SDS011;31655;48.972;10.686;2023-06-19T05:55:06;7.65;;;5.95;;
45944;SDS011;31655;48.972;10.686;2023-06-19T05:57:32;6.78;;;5.85;;
45944;SDS011;31655;48.972;10.686;2023-06-19T05:59:58;8.98;;;6.07;;
45944;SDS011;31655;48.972;10.686;2023-06-19T06:02:24;8.63;;;6.13;;
45944;SDS011;31655;48.972;10.686;2023-06-19T06:04:53;9.90;;;6.18;;
45944;SDS011;31655;48.972;10.686;2023-06-19T06:07:21;7.03;;;5.97;;
45944;SDS011;31655;48.972;10.686;2023-06-19T06:09:47;8.38;;;6.20;;
45944;SDS011;31655;48.972;10.686;2023-06-19T06:12:12;8.48;;;6.15;;
45944;SDS011;31655;48.972;10.686;2023-06-19T06:14:39;8.18;;;5.78;;
45944;SDS011;31655;48.972;10.686;2023-06-19T06:17:06;6.63;;;6.03;;
45944;SDS011;31655;48.972;10.686;2023-06-19T06:19:32;9.10;;;6.10;;
45944;SDS011;31655;48.972;10.686;2023-06-19T06:21:57;10.20;;;6.10;;
45944;SDS011;31655;48.972;10.686;2023-06-19T06:24:23;7.25;;;6.55;;
45944;SDS011;31655;48.972;10.686;2023-06-19T06:26:48;15.45;;;7.40;;
45944;SDS011;31655;48.972;10.686;2023-06-19T06:29:14;10.20;;;7.10;;
45944;SDS011;31655;48.972;10.686;2023-06-19T06:31:40;9.60;;;7.20;;
45944;SDS011;31655;48.972;10.686;2023-06-19T06:34:07;8.35;;;6.95;;
45944;SDS011;31655;48.972;10.686;2023-06-19T06:36:33;11.13;;;6.93;;
45944;SDS011;31655;48.972;10.686;2023-06-19T06:38:59;8.60;;;7.50;;
45944;SDS011;31655;48.972;10.686;2023-06-19T06:41:25;9.90;;;7.60;;
45944;SDS011;31655;48.972;10.686;2023-06-19T06:43:52;14.30;;;7.13;;
45944;SDS011;31655;48.972;10.686;2023-06-19T06:46:18;8.05;;;7.05;;
45944;SDS011;31655;48.972;10.686;2023-06-19T06:48:44;8.30;;;7.30;;
45944;SDS011;31655;48.972;10.686;2023-06-19T06:51:10;8.10;;;7.30;;
45944;SDS011;31655;48.972;10.686;2023-06-19T06:53:36;9.55;;;6.38;;
45944;SDS011;31655;48.972;10.686;2023-06-19T06:56:02;18.42;;;7.70;;
45944;SDS011;31655;48.972;10.686;2023-06-19T06:58:28;10.65;;;7.18;;
45944;SDS011;31655;48.972;10.686;2023-06-19T07:00:55;8.65;;;7.40;;
45944;SDS011;31655;48.972;10.686;2023-06-19T07:03:20;12.93;;;7.78;;
45944;SDS011;31655;48.972;10.686;2023-06-19T07:05:47;10.10;;;6.90;;
45944;SDS011;31655;48.972;10.686;2023-06-19T07:08:13;8.73;;;7.32;;
45944;SDS011;31655;48.972;10.686;2023-06-19T07:10:39;9.02;;;7.13;;
45944;SDS011;31655;48.972;10.686;2023-06-19T07:13:04;8.13;;;6.93;;
45944;SDS011;31655;48.972;10.686;2023-06-19T07:15:30;9.57;;;7.28;;
45944;SDS011;31655;48.972;10.686;2023-06-19T07:17:56;14.18;;;8.00;;
45944;SDS011;31655;48.972;10.686;2023-06-19T07:20:22;11.57;;;7.03;;
45944;SDS011;31655;48.972;10.686;2023-06-19T07:22:50;8.43;;;6.38;;
45944;SDS011;31655;48.972;10.686;2023-06-19T07:25:17;10.05;;;6.00;;
45944;SDS011;31655;48.972;10.686;2023-06-19T07:27:43;9.20;;;7.20;;
45944;SDS011;31655;48.972;10.686;2023-06-19T07:30:09;10.05;;;7.03;;
45944;SDS011;31655;48.972;10.686;2023-06-19T07:32:35;14.43;;;7.28;;
45944;SDS011;31655;48.972;10.686;2023-06-19T07:35:01;9.85;;;6.30;;
45944;SDS011;31655;48.972;10.686;2023-06-19T07:37:27;7.85;;;6.30;;
45944;SDS011;31655;48.972;10.686;2023-06-19T07:39:53;8.18;;;6.47;;
45944;SDS011;31655;48.972;10.686;2023-06-19T07:42:20;8.35;;;6.45;;
45944;SDS011;31655;48.972;10.686;2023-06-19T07:44:47;7.05;;;5.57;;
45944;SDS011;31655;48.972;10.686;2023-06-19T07:47:14;9.60;;;6.53;;
45944;SDS011;31655;48.972;10.686;2023-06-19T07:49:41;9.10;;;6.13;;
45944;SDS011;31655;48.972;10.686;2023-06-19T07:52:07;8.63;;;5.72;;
45944;SDS011;31655;48.972;10.686;2023-06-19T07:54:34;9.95;;;6.68;;
45944;SDS011;31655;48.972;10.686;2023-06-19T07:57:00;7.55;;;5.78;;
45944;SDS011;31655;48.972;10.686;2023-06-19T07:59:26;6.70;;;5.70;;
45944;SDS011;31655;48.972;10.686;2023-06-19T08:01:52;7.35;;;5.30;;
45944;SDS011;31655;48.972;10.686;2023-06-19T08:04:18;8.25;;;5.45;;
45944;SDS011;31655;48.972;10.686;2023-06-19T08:06:44;7.35;;;5.47;;
45944;SDS011;31655;48.972;10.686;2023-06-19T08:09:10;10.82;;;5.55;;
45944;SDS011;31655;48.972;10.686;2023-06-19T08:11:36;9.43;;;6.13;;
45944;SDS011;31655;48.972;10.686;2023-06-19T08:14:02;8.07;;;5.78;;
45944;SDS011;31655;48.972;10.686;2023-06-19T08:16:28;6.43;;;5.47;;
45944;SDS011;31655;48.972;10.686;2023-06-19T08:18:54;8.23;;;4.95;;
45944;SDS011;31655;48.972;10.686;2023-06-19T08:21:20;5.32;;;4.43;;
45944;SDS011;31655;48.972;10.686;2023-06-19T08:23:46;6.93;;;5.53;;
45944;SDS011;31655;48.972;10.686;2023-06-19T08:26:12;8.73;;;4.18;;
45944;SDS011;31655;48.972;10.686;2023-06-19T08:28:39;5.55;;;4.95;;
45944;SDS011;31655;48.972;10.686;2023-06-19T08:31:06;4.95;;;4.40;;
45944;SDS011;31655;48.972;10.686;2023-06-19T08:33:33;6.00;;;3.92;;
45944;SDS011;31655;48.972;10.686;2023-06-19T08:36:00;4.75;;;4.25;;
45944;SDS011;31655;48.972;10.686;2023-06-19T08:38:26;5.38;;;4.45;;
45944;SDS011;31655;48.972;10.686;2023-06-19T08:40:52;4.70;;;4.30;;
45944;SDS011;31655;48.972;10.686;2023-06-19T08:43:18;4.85;;;4.35;;
45944;SDS011;31655;48.972;10.686;2023-06-19T08:45:51;6.60;;;4.57;;
45944;SDS011;31655;48.972;10.686;2023-06-19T08:48:37;4.78;;;4.28;;
45944;SDS011;31655;48.972;10.686;2023-06-19T08:51:03;6.22;;;4.80;;
45944;SDS011;31655;48.972;10.686;2023-06-19T08:53:32;5.50;;;4.68;;
45944;SDS011;31655;48.972;10.686;2023-06-19T08:55:59;6.50;;;5.13;;
45944;SDS011;31655;48.972;10.686;2023-06-19T08:58:25;5.38;;;4.80;;
45944;SDS011;31655;48.972;10.686;2023-06-19T09:00:51;6.47;;;4.80;;
45944;SDS011;31655;48.972;10.686;2023-06-19T09:03:20;7.57;;;5.43;;
45944;SDS011;31655;48.972;10.686;2023-06-19T09:05:46;5.90;;;5.28;;
45944;SDS011;31655;48.972;10.686;2023-06-19T09:08:15;6.03;;;5.00;;
45944;SDS011;31655;48.972;10.686;2023-06-19T09:13:43;5.72;;;4.80;;
45944;SDS011;31655;48.972;10.686;2023-06-19T09:16:08;6.50;;;4.80;;
45944;SDS011;31655;48.972;10.686;2023-06-19T09:18:44;7.25;;;5.70;;
45944;SDS011;31655;48.972;10.686;2023-06-19T09:21:14;8.30;;;5.70;;
45944;SDS011;31655;48.972;10.686;2023-06-19T09:23:44;6.57;;;5.10;;
45944;SDS011;31655;48.972;10.686;2023-06-19T09:26:10;7.10;;;5.32;;
45944;SDS011;31655;48.972;10.686;2023-06-19T09:28:40;8.02;;;4.80;;
45944;SDS011;31655;48.972;10.686;2023-06-19T09:31:07;8.30;;;5.20;;
45944;SDS011;31655;48.972;10.686;2023-06-19T09:33:34;8.07;;;5.70;;
45944;SDS011;31655;48.972;10.686;2023-06-19T09:36:00;7.75;;;5.95;;
45944;SDS011;31655;48.972;10.686;2023-06-19T09:38:28;10.43;;;5.35;;
45944;SDS011;31655;48.972;10.686;2023-06-19T09:40:56;9.13;;;5.65;;
45944;SDS011;31655;48.972;10.686;2023-06-19T09:43:25;10.02;;;6.30;;
45944;SDS011;31655;48.972;10.686;2023-06-19T09:45:58;7.05;;;5.47;;
45944;SDS011;31655;48.972;10.686;2023-06-19T09:48:27;9.65;;;5.60;;
45944;SDS011;31655;48.972;10.686;2023-06-19T09:50:54;10.32;;;6.22;;
45944;SDS011;31655;48.972;10.686;2023-06-19T09:53:27;6.68;;;6.03;;
45944;SDS011;31655;48.972;10.686;2023-06-19T09:55:53;5.63;;;5.13;;
45944;SDS011;31655;48.972;10.686;2023-06-19T09:58:21;8.13;;;6.30;;
45944;SDS011;31655;48.972;10.686;2023-06-19T10:00:47;7.43;;;5.18;;
45944;SDS011;31655;48.972;10.686;2023-06-19T10:03:16;6.25;;;5.35;;
45944;SDS011;31655;48.972;10.686;2023-06-19T10:05:42;5.38;;;4.72;;
45944;SDS011;31655;48.972;10.686;2023-06-19T10:08:09;4.35;;;3.95;;
45944;SDS011;31655;48.972;10.686;2023-06-19T10:10:35;6.70;;;3.92;;
45944;SDS011;31655;48.972;10.686;2023-06-19T10:13:14;4.63;;;3.70;;
45944;SDS011;31655;48.972;10.686;2023-06-19T10:15:42;5.60;;;3.65;;
45944;SDS011;31655;48.972;10.686;2023-06-19T10:18:13;4.53;;;4.13;;
45944;SDS011;31655;48.972;10.686;2023-06-19T10:20:41;6.05;;;3.88;;
45944;SDS011;31655;48.972;10.686;2023-06-19T10:23:10;6.50;;;3.35;;
45944;SDS011;31655;48.972;10.686;2023-06-19T10:25:39;4.18;;;3.78;;
45944;SDS011;31655;48.972;10.686;2023-06-19T10:28:20;5.93;;;4.13;;
45944;SDS011;31655;48.972;10.686;2023-06-19T10:30:57;4.88;;;4.03;;
45944;SDS011;31655;48.972;10.686;2023-06-19T10:33:28;4.55;;;4.15;;
45944;SDS011;31655;48.972;10.686;2023-06-19T10:35:55;8.30;;;4.13;;
45944;SDS011;31655;48.972;10.686;2023-06-19T10:38:21;6.72;;;3.83;;
45944;SDS011;31655;48.972;10.686;2023-06-19T10:40:47;5.57;;;3.90;;
45944;SDS011;31655;48.972;10.686;2023-06-19T10:43:23;3.85;;;3.45;;
45944;SDS011;31655;48.972;10.686;2023-06-19T10:45:53;6.18;;;3.72;;
45944;SDS011;31655;48.972;10.686;2023-06-19T10:48:23;6.40;;;3.85;;
45944;SDS011;31655;48.972;10.686;2023-06-19T10:50:50;6.43;;;4.03;;
45944;SDS011;31655;48.972;10.686;2023-06-19T10:53:32;3.50;;;3.20;;
45944;SDS011;31655;48.972;10.686;2023-06-19T10:56:01;4.22;;;3.60;;
45944;SDS011;31655;48.972;10.686;2023-06-19T10:58:27;5.35;;;3.83;;
45944;SDS011;31655;48.972;10.686;2023-06-19T11:00:54;4.05;;;3.58;;
45944;SDS011;31655;48.972;10.686;2023-06-19T11:03:20;4.78;;;3.55;;
45944;SDS011;31655;48.972;10.686;2023-06-19T11:05:46;4.53;;;3.42;;
45944;SDS011;31655;48.972;10.686;2023-06-19T11:08:17;3.80;;;3.50;;
45944;SDS011;31655;48.972;10.686;2023-06-19T11:10:47;4.10;;;3.70;;
45944;SDS011;31655;48.972;10.686;2023-06-19T11:13:18;5.90;;;3.95;;
45944;SDS011;31655;48.972;10.686;2023-06-19T11:15:45;6.18;;;3.88;;
45944;SDS011;31655;48.972;10.686;2023-06-19T11:18:14;4.30;;;3.90;;
45944;SDS011;31655;48.972;10.686;2023-06-19T11:20:44;4.50;;;3.92;;
45944;SDS011;31655;48.972;10.686;2023-06-19T11:23:24;4.80;;;3.40;;
45944;SDS011;31655;48.972;10.686;2023-06-19T11:26:02;5.43;;;3.90;;
45944;SDS011;31655;48.972;10.686;2023-06-19T11:28:29;3.63;;;3.33;;
45944;SDS011;31655;48.972;10.686;2023-06-19T11:31:01;4.90;;;3.85;;
45944;SDS011;31655;48.972;10.686;2023-06-19T11:33:28;4.90;;;3.75;;
45944;SDS011;31655;48.972;10.686;2023-06-19T11:35:54;3.67;;;3.38;;
45944;SDS011;31655;48.972;10.686;2023-06-19T11:38:21;4.40;;;4.00;;
45944;SDS011;31655;48.972;10.686;2023-06-19T11:40:51;4.13;;;3.72;;
45944;SDS011;31655;48.972;10.686;2023-06-19T11:43:26;5.45;;;3.90;;
45944;SDS011;31655;48.972;10.686;2023-06-19T11:46:03;4.30;;;3.90;;
45944;SDS011;31655;48.972;10.686;2023-06-19T11:48:38;6.03;;;4.10;;
45944;SDS011;31655;48.972;10.686;2023-06-19T11:51:04;6.55;;;4.20;;
45944;SDS011;31655;48.972;10.686;2023-06-19T11:53:29;5.45;;;4.00;;
45944;SDS011;31655;48.972;10.686;2023-06-19T11:55:55;4.10;;;3.58;;
45944;SDS011;31655;48.972;10.686;2023-06-19T11:58:21;3.53;;;3.22;;
45944;SDS011;31655;48.972;10.686;2023-06-19T12:00:48;6.20;;;3.85;;
45944;SDS011;31655;48.972;10.686;2023-06-19T12:03:13;5.85;;;3.70;;
45944;SDS011;31655;48.972;10.686;2023-06-19T12:05:39;6.63;;;3.20;;
45944;SDS011;31655;48.972;10.686;2023-06-19T12:08:05;4.63;;;3.85;;
45944;SDS011;31655;48.972;10.686;2023-06-19T12:10:32;5.65;;;3.92;;
45944;SDS011;31655;48.972;10.686;2023-06-19T12:12:58;7.28;;;4.05;;
45944;SDS011;31655;48.972;10.686;2023-06-19T12:15:24;4.45;;;3.75;;
45944;SDS011;31655;48.972;10.686;2023-06-19T12:17:50;4.63;;;4.22;;
45944;SDS011;31655;48.972;10.686;2023-06-19T12:20:17;6.00;;;4.40;;
45944;SDS011;31655;48.972;10.686;2023-06-19T12:22:43;5.38;;;4.53;;
45944;SDS011;31655;48.972;10.686;2023-06-19T12:25:09;5.43;;;4.93;;
45944;SDS011;31655;48.972;10.686;2023-06-19T12:27:35;6.40;;;4.10;;
45944;SDS011;31655;48.972;10.686;2023-06-19T12:30:01;5.05;;;4.43;;
45944;SDS011;31655;48.972;10.686;2023-06-19T12:32:27;4.93;;;4.53;;
45944;SDS011;31655;48.972;10.686;2023-06-19T12:34:53;5.95;;;4.10;;
45944;SDS011;31655;48.972;10.686;2023-06-19T12:37:20;5.78;;;4.85;;
45944;SDS011;31655;48.972;10.686;2023-06-19T12:39:46;5.60;;;5.10;;
45944;SDS011;31655;48.972;10.686;2023-06-19T12:42:12;9.93;;;6.03;;
45944;SDS011;31655;48.972;10.686;2023-06-19T12:44:41;7.18;;;4.93;;
45944;SDS011;31655;48.972;10.686;2023-06-19T12:47:09;5.72;;;4.75;;
45944;SDS011;31655;48.972;10.686;2023-06-19T12:49:35;10.02;;;5.82;;
45944;SDS011;31655;48.972;10.686;2023-06-19T12:52:00;8.32;;;5.18;;
45944;SDS011;31655;48.972;10.686;2023-06-19T12:54:26;7.93;;;5.82;;
45944;SDS011;31655;48.972;10.686;2023-06-19T12:56:53;6.18;;;5.68;;
45944;SDS011;31655;48.972;10.686;2023-06-19T12:59:19;7.40;;;5.20;;
45944;SDS011;31655;48.972;10.686;2023-06-19T13:01:45;6.93;;;5.22;;
45944;SDS011;31655;48.972;10.686;2023-06-19T13:04:11;7.40;;;6.15;;
45944;SDS011;31655;48.972;10.686;2023-06-19T13:06:37;7.20;;;5.72;;
45944;SDS011;31655;48.972;10.686;2023-06-19T13:09:04;8.55;;;7.00;;
45944;SDS011;31655;48.972;10.686;2023-06-19T13:11:31;7.28;;;6.10;;
45944;SDS011;31655;48.972;10.686;2023-06-19T13:13:59;7.35;;;5.90;;
45944;SDS011;31655;48.972;10.686;2023-06-19T13:16:25;6.07;;;5.13;;
45944;SDS011;31655;48.972;10.686;2023-06-19T13:18:51;6.15;;;5.55;;
45944;SDS011;31655;48.972;10.686;2023-06-19T13:21:17;6.85;;;5.63;;
45944;SDS011;31655;48.972;10.686;2023-06-19T13:23:43;11.15;;;5.65;;
45944;SDS011;31655;48.972;10.686;2023-06-19T13:26:09;5.63;;;4.68;;
45944;SDS011;31655;48.972;10.686;2023-06-19T13:28:35;6.47;;;5.40;;
45944;SDS011;31655;48.972;10.686;2023-06-19T13:31:01;5.18;;;4.60;;
45944;SDS011;31655;48.972;10.686;2023-06-19T13:33:27;6.00;;;5.40;;
45944;SDS011;31655;48.972;10.686;2023-06-19T13:35:53;4.15;;;3.75;;
45944;SDS011;31655;48.972;10.686;2023-06-19T13:38:19;3.97;;;3.63;;
45944;SDS011;31655;48.972;10.686;2023-06-19T13:40:46;6.65;;;5.03;;
45944;SDS011;31655;48.972;10.686;2023-06-19T13:43:12;3.97;;;3.58;;
45944;SDS011;31655;48.972;10.686;2023-06-19T13:45:38;3.80;;;3.00;;
45944;SDS011;31655;48.972;10.686;2023-06-19T13:48:07;3.88;;;2.95;;
45944;SDS011;31655;48.972;10.686;2023-06-19T13:50:33;4.60;;;2.92;;
45944;SDS011;31655;48.972;10.686;2023-06-19T13:52:59;3.88;;;3.15;;
45944;SDS011;31655;48.972;10.686;2023-06-19T13:55:25;3.70;;;2.55;;
45944;SDS011;31655;48.972;10.686;2023-06-19T13:57:51;2.08;;;1.95;;
45944;SDS011;31655;48.972;10.686;2023-06-19T14:00:19;3.42;;;2.33;;
45944;SDS011;31655;48.972;10.686;2023-06-19T14:02:45;3.05;;;2.35;;
45944;SDS011;31655;48.972;10.686;2023-06-19T14:05:11;2.50;;;2.10;;
45944;SDS011;31655;48.972;10.686;2023-06-19T14:07:41;3.30;;;2.10;;
45944;SDS011;31655;48.972;10.686;2023-06-19T14:10:07;2.05;;;1.92;;
45944;SDS011;31655;48.972;10.686;2023-06-19T14:12:34;3.05;;;2.33;;
45944;SDS011;31655;48.972;10.686;2023-06-19T14:14:59;2.55;;;2.35;;
45944;SDS011;31655;48.972;10.686;2023-06-19T14:17:25;4.05;;;1.90;;
45944;SDS011;31655;48.972;10.686;2023-06-19T14:19:51;2.35;;;2.13;;
45944;SDS011;31655;48.972;10.686;2023-06-19T14:22:17;2.42;;;2.03;;
45944;SDS011;31655;48.972;10.686;2023-06-19T14:24:43;2.15;;;1.95;;
45944;SDS011;31655;48.972;10.686;2023-06-19T14:27:09;2.13;;;1.92;;
45944;SDS011;31655;48.972;10.686;2023-06-19T14:29:35;2.63;;;2.38;;
45944;SDS011;31655;48.972;10.686;2023-06-19T14:32:00;3.03;;;2.38;;
45944;SDS011;31655;48.972;10.686;2023-06-19T14:34:27;3.88;;;2.40;;
45944;SDS011;31655;48.972;10.686;2023-06-19T14:36:53;4.10;;;3.08;;
45944;SDS011;31655;48.972;10.686;2023-06-19T14:39:20;3.97;;;3.08;;